sensor_id;sensor_type;location;lat;lon;timestamp;temperature;humidity
21387;DHT22;10854;45.922;6.716;2023-12-04T00:00:23;-4.30;99.90
21387;DHT22;10854;45.922;6.716;2023-12-04T00:02:51;-4.30;99.90
21387;DHT22;10854;45.922;6.716;2023-12-04T00:05:20;-4.30;99.90
21387;DHT22;10854;45.922;6.716;2023-12-04T00:07:48;-4.30;99.90
21387;DHT22;10854;45.922;6.716;2023-12-04T00:10:17;-4.30;99.90
21387;DHT22;10854;45.922;6.716;2023-12-04T00:12:45;-4.30;99.90
21387;DHT22;10854;45.922;6.716;2023-12-04T00:15:14;-4.30;99.90
21387;DHT22;10854;45.922;6.716;2023-12-04T00:17:42;-4.30;99.90
21387;DHT22;10854;45.922;6.716;2023-12-04T00:20:10;-4.20;99.90
21387;DHT22;10854;45.922;6.716;2023-12-04T00:22:39;-4.20;99.90
21387;DHT22;10854;45.922;6.716;2023-12-04T00:25:07;-4.20;99.90
21387;DHT22;10854;45.922;6.716;2023-12-04T00:27:36;-4.20;99.90
21387;DHT22;10854;45.922;6.716;2023-12-04T00:30:05;-4.10;99.90
21387;DHT22;10854;45.922;6.716;2023-12-04T00:32:34;-4.00;99.90
21387;DHT22;10854;45.922;6.716;2023-12-04T00:35:02;-3.80;99.90
21387;DHT22;10854;45.922;6.716;2023-12-04T00:37:30;-3.60;99.90
21387;DHT22;10854;45.922;6.716;2023-12-04T00:39:59;-3.40;99.90
21387;DHT22;10854;45.922;6.716;2023-12-04T00:42:27;-3.40;99.90
21387;DHT22;10854;45.922;6.716;2023-12-04T00:44:55;-3.30;99.90
21387;DHT22;10854;45.922;6.716;2023-12-04T00:47:24;-3.30;99.90
21387;DHT22;10854;45.922;6.716;2023-12-04T00:49:53;-3.20;99.90
21387;DHT22;10854;45.922;6.716;2023-12-04T00:52:21;-3.20;99.90
21387;DHT22;10854;45.922;6.716;2023-12-04T00:54:49;-3.20;99.90
21387;DHT22;10854;45.922;6.716;2023-12-04T00:57:18;-3.20;99.90
21387;DHT22;10854;45.922;6.716;2023-12-04T00:59:48;-3.30;99.90
21387;DHT22;10854;45.922;6.716;2023-12-04T01:02:16;-3.30;99.90
21387;DHT22;10854;45.922;6.716;2023-12-04T01:04:44;-3.30;99.90
21387;DHT22;10854;45.922;6.716;2023-12-04T01:07:13;-3.40;99.90
21387;DHT22;10854;45.922;6.716;2023-12-04T01:09:41;-3.40;99.90
21387;DHT22;10854;45.922;6.716;2023-12-04T01:12:09;-3.40;99.90
21387;DHT22;10854;45.922;6.716;2023-12-04T01:14:38;-3.30;99.90
21387;DHT22;10854;45.922;6.716;2023-12-04T01:17:06;-3.20;99.90
21387;DHT22;10854;45.922;6.716;2023-12-04T01:19:35;-3.20;99.90
21387;DHT22;10854;45.922;6.716;2023-12-04T01:22:05;-3.20;99.90
21387;DHT22;10854;45.922;6.716;2023-12-04T01:24:33;-3.10;99.90
21387;DHT22;10854;45.922;6.716;2023-12-04T01:27:02;-3.00;99.90
21387;DHT22;10854;45.922;6.716;2023-12-04T01:29:30;-2.90;99.90
21387;DHT22;10854;45.922;6.716;2023-12-04T01:31:59;-2.80;99.90
21387;DHT22;10854;45.922;6.716;2023-12-04T01:34:28;-2.60;99.90
21387;DHT22;10854;45.922;6.716;2023-12-04T01:36:56;-2.50;99.90
21387;DHT22;10854;45.922;6.716;2023-12-04T01:39:25;-2.40;99.90
21387;DHT22;10854;45.922;6.716;2023-12-04T01:41:53;-2.30;99.90
21387;DHT22;10854;45.922;6.716;2023-12-04T01:44:21;-2.20;99.90
21387;DHT22;10854;45.922;6.716;2023-12-04T01:46:50;-2.20;99.90
21387;DHT22;10854;45.922;6.716;2023-12-04T01:49:18;-2.10;99.90
21387;DHT22;10854;45.922;6.716;2023-12-04T01:51:47;-2.10;99.90
21387;DHT22;10854;45.922;6.716;2023-12-04T01:54:17;-2.20;99.90
21387;DHT22;10854;45.922;6.716;2023-12-04T01:56:46;-2.20;99.90
21387;DHT22;10854;45.922;6.716;2023-12-04T01:59:15;-2.10;99.90
21387;DHT22;10854;45.922;6.716;2023-12-04T02:01:44;-2.10;99.90
21387;DHT22;10854;45.922;6.716;2023-12-04T02:04:12;-2.10;99.90
21387;DHT22;10854;45.922;6.716;2023-12-04T02:06:41;-2.00;99.90
21387;DHT22;10854;45.922;6.716;2023-12-04T02:09:09;-2.00;99.90
21387;DHT22;10854;45.922;6.716;2023-12-04T02:11:40;-1.90;99.90
21387;DHT22;10854;45.922;6.716;2023-12-04T02:14:08;-1.90;99.90
21387;DHT22;10854;45.922;6.716;2023-12-04T02:16:40;-1.90;99.90
21387;DHT22;10854;45.922;6.716;2023-12-04T02:19:13;-1.80;99.90
21387;DHT22;10854;45.922;6.716;2023-12-04T02:21:42;-1.80;99.90
21387;DHT22;10854;45.922;6.716;2023-12-04T02:24:10;-1.70;99.90
21387;DHT22;10854;45.922;6.716;2023-12-04T02:26:47;-1.70;99.90
21387;DHT22;10854;45.922;6.716;2023-12-04T02:29:43;-1.60;99.90
21387;DHT22;10854;45.922;6.716;2023-12-04T02:32:11;-1.60;99.90
21387;DHT22;10854;45.922;6.716;2023-12-04T02:34:44;-1.50;99.90
21387;DHT22;10854;45.922;6.716;2023-12-04T02:37:15;-1.50;99.90
21387;DHT22;10854;45.922;6.716;2023-12-04T02:39:45;-1.50;99.90
21387;DHT22;10854;45.922;6.716;2023-12-04T02:42:13;-1.40;99.90
21387;DHT22;10854;45.922;6.716;2023-12-04T02:44:42;-1.40;99.90
21387;DHT22;10854;45.922;6.716;2023-12-04T02:47:11;-1.30;99.90
21387;DHT22;10854;45.922;6.716;2023-12-04T02:49:39;-1.30;99.90
21387;DHT22;10854;45.922;6.716;2023-12-04T02:52:07;-1.30;99.90
21387;DHT22;10854;45.922;6.716;2023-12-04T02:54:36;-1.20;99.90
21387;DHT22;10854;45.922;6.716;2023-12-04T02:57:04;-1.20;99.90
21387;DHT22;10854;45.922;6.716;2023-12-04T02:59:33;-1.20;99.90
21387;DHT22;10854;45.922;6.716;2023-12-04T03:02:01;-1.20;99.90
21387;DHT22;10854;45.922;6.716;2023-12-04T03:04:31;-1.20;99.90
21387;DHT22;10854;45.922;6.716;2023-12-04T03:06:59;-1.20;99.90
21387;DHT22;10854;45.922;6.716;2023-12-04T03:09:27;-1.20;99.90
21387;DHT22;10854;45.922;6.716;2023-12-04T03:11:56;-1.20;99.90
21387;DHT22;10854;45.922;6.716;2023-12-04T03:14:24;-1.20;99.90
21387;DHT22;10854;45.922;6.716;2023-12-04T03:16:53;-1.20;99.90
21387;DHT22;10854;45.922;6.716;2023-12-04T03:19:21;-1.20;99.90
21387;DHT22;10854;45.922;6.716;2023-12-04T03:21:50;-1.30;99.90
21387;DHT22;10854;45.922;6.716;2023-12-04T03:24:18;-1.20;99.90
21387;DHT22;10854;45.922;6.716;2023-12-04T03:26:46;-1.30;99.90
21387;DHT22;10854;45.922;6.716;2023-12-04T03:29:15;-1.30;99.90
21387;DHT22;10854;45.922;6.716;2023-12-04T03:31:43;-1.30;99.90
21387;DHT22;10854;45.922;6.716;2023-12-04T03:34:11;-1.20;99.90
21387;DHT22;10854;45.922;6.716;2023-12-04T03:36:40;-1.20;99.90
21387;DHT22;10854;45.922;6.716;2023-12-04T03:39:09;-1.20;99.90
21387;DHT22;10854;45.922;6.716;2023-12-04T03:41:39;-1.20;99.90
21387;DHT22;10854;45.922;6.716;2023-12-04T03:44:07;-1.20;99.90
21387;DHT22;10854;45.922;6.716;2023-12-04T03:46:35;-1.20;99.90
21387;DHT22;10854;45.922;6.716;2023-12-04T03:49:05;-1.20;99.90
21387;DHT22;10854;45.922;6.716;2023-12-04T03:51:33;-1.20;99.90
21387;DHT22;10854;45.922;6.716;2023-12-04T03:54:02;-1.20;99.90
21387;DHT22;10854;45.922;6.716;2023-12-04T03:56:30;-1.20;99.90
21387;DHT22;10854;45.922;6.716;2023-12-04T03:58:58;-1.20;99.90
21387;DHT22;10854;45.922;6.716;2023-12-04T04:01:27;-1.20;99.90
21387;DHT22;10854;45.922;6.716;2023-12-04T04:03:55;-1.10;99.90
21387;DHT22;10854;45.922;6.716;2023-12-04T04:06:48;-1.10;99.90
21387;DHT22;10854;45.922;6.716;2023-12-04T04:09:16;-1.10;99.90
21387;DHT22;10854;45.922;6.716;2023-12-04T04:11:47;-1.10;99.90
21387;DHT22;10854;45.922;6.716;2023-12-04T04:14:16;-1.10;99.90
21387;DHT22;10854;45.922;6.716;2023-12-04T04:16:45;-1.00;99.90
21387;DHT22;10854;45.922;6.716;2023-12-04T04:19:14;-1.00;99.90
21387;DHT22;10854;45.922;6.716;2023-12-04T04:21:42;-1.00;99.90
21387;DHT22;10854;45.922;6.716;2023-12-04T04:24:11;-1.00;99.90
21387;DHT22;10854;45.922;6.716;2023-12-04T04:26:39;-0.90;99.90
21387;DHT22;10854;45.922;6.716;2023-12-04T04:29:07;-0.80;99.90
21387;DHT22;10854;45.922;6.716;2023-12-04T04:31:37;-0.60;99.90
21387;DHT22;10854;45.922;6.716;2023-12-04T04:34:05;-0.50;99.90
21387;DHT22;10854;45.922;6.716;2023-12-04T04:36:34;-0.50;99.90
21387;DHT22;10854;45.922;6.716;2023-12-04T04:39:03;-0.50;99.90
21387;DHT22;10854;45.922;6.716;2023-12-04T04:41:33;-0.50;99.90
21387;DHT22;10854;45.922;6.716;2023-12-04T04:44:01;-0.50;99.90
21387;DHT22;10854;45.922;6.716;2023-12-04T04:46:30;-0.50;99.90
21387;DHT22;10854;45.922;6.716;2023-12-04T04:48:58;-0.40;99.90
21387;DHT22;10854;45.922;6.716;2023-12-04T04:51:28;-0.40;99.90
21387;DHT22;10854;45.922;6.716;2023-12-04T04:54:03;-0.40;99.90
21387;DHT22;10854;45.922;6.716;2023-12-04T04:56:31;-0.40;99.90
21387;DHT22;10854;45.922;6.716;2023-12-04T04:59:00;-0.40;99.90
21387;DHT22;10854;45.922;6.716;2023-12-04T05:01:28;-0.40;99.90
21387;DHT22;10854;45.922;6.716;2023-12-04T05:03:56;-0.30;99.90
21387;DHT22;10854;45.922;6.716;2023-12-04T05:06:25;-0.30;99.90
21387;DHT22;10854;45.922;6.716;2023-12-04T05:08:53;-0.20;99.90
21387;DHT22;10854;45.922;6.716;2023-12-04T05:11:22;0.00;99.90
21387;DHT22;10854;45.922;6.716;2023-12-04T05:13:50;0.10;99.90
21387;DHT22;10854;45.922;6.716;2023-12-04T05:16:18;0.30;99.90
21387;DHT22;10854;45.922;6.716;2023-12-04T05:18:47;0.40;99.90
21387;DHT22;10854;45.922;6.716;2023-12-04T05:21:15;0.40;99.90
21387;DHT22;10854;45.922;6.716;2023-12-04T05:23:44;0.40;99.90
21387;DHT22;10854;45.922;6.716;2023-12-04T05:26:12;0.40;99.90
21387;DHT22;10854;45.922;6.716;2023-12-04T05:28:41;0.30;99.90
21387;DHT22;10854;45.922;6.716;2023-12-04T05:31:09;0.30;99.90
21387;DHT22;10854;45.922;6.716;2023-12-04T05:33:38;0.30;99.90
21387;DHT22;10854;45.922;6.716;2023-12-04T05:36:08;0.30;99.90
21387;DHT22;10854;45.922;6.716;2023-12-04T05:38:36;0.40;99.90
21387;DHT22;10854;45.922;6.716;2023-12-04T05:41:05;0.50;99.90
21387;DHT22;10854;45.922;6.716;2023-12-04T05:43:33;0.60;99.90
21387;DHT22;10854;45.922;6.716;2023-12-04T05:46:01;0.60;99.90
21387;DHT22;10854;45.922;6.716;2023-12-04T05:48:30;0.70;99.90
21387;DHT22;10854;45.922;6.716;2023-12-04T05:50:58;0.80;99.90
21387;DHT22;10854;45.922;6.716;2023-12-04T05:53:27;0.80;99.90
21387;DHT22;10854;45.922;6.716;2023-12-04T05:55:56;0.90;99.90
21387;DHT22;10854;45.922;6.716;2023-12-04T05:58:25;0.90;99.90
21387;DHT22;10854;45.922;6.716;2023-12-04T06:00:53;0.90;99.90
21387;DHT22;10854;45.922;6.716;2023-12-04T06:03:22;1.00;99.90
21387;DHT22;10854;45.922;6.716;2023-12-04T06:05:50;1.00;99.90
21387;DHT22;10854;45.922;6.716;2023-12-04T06:08:20;1.00;99.90
21387;DHT22;10854;45.922;6.716;2023-12-04T06:10:48;1.00;99.90
21387;DHT22;10854;45.922;6.716;2023-12-04T06:13:17;0.90;99.90
21387;DHT22;10854;45.922;6.716;2023-12-04T06:15:45;1.00;99.90
21387;DHT22;10854;45.922;6.716;2023-12-04T06:18:14;1.00;99.90
21387;DHT22;10854;45.922;6.716;2023-12-04T06:20:42;1.10;99.90
21387;DHT22;10854;45.922;6.716;2023-12-04T06:23:11;1.10;99.90
21387;DHT22;10854;45.922;6.716;2023-12-04T06:25:40;1.10;99.90
21387;DHT22;10854;45.922;6.716;2023-12-04T06:28:09;1.00;99.90
21387;DHT22;10854;45.922;6.716;2023-12-04T06:30:38;0.90;99.90
21387;DHT22;10854;45.922;6.716;2023-12-04T06:33:08;0.90;99.90
21387;DHT22;10854;45.922;6.716;2023-12-04T06:35:36;0.90;99.90
21387;DHT22;10854;45.922;6.716;2023-12-04T06:38:08;0.90;99.90
21387;DHT22;10854;45.922;6.716;2023-12-04T06:40:37;0.90;99.90
21387;DHT22;10854;45.922;6.716;2023-12-04T06:43:05;0.80;99.90
21387;DHT22;10854;45.922;6.716;2023-12-04T06:45:35;0.80;99.90
21387;DHT22;10854;45.922;6.716;2023-12-04T06:48:04;0.80;99.90
21387;DHT22;10854;45.922;6.716;2023-12-04T06:50:32;0.90;99.90
21387;DHT22;10854;45.922;6.716;2023-12-04T06:53:01;1.00;99.90
21387;DHT22;10854;45.922;6.716;2023-12-04T06:55:29;1.00;99.90
21387;DHT22;10854;45.922;6.716;2023-12-04T06:57:58;1.10;99.90
21387;DHT22;10854;45.922;6.716;2023-12-04T07:00:26;1.20;99.90
21387;DHT22;10854;45.922;6.716;2023-12-04T07:02:55;1.30;99.90
21387;DHT22;10854;45.922;6.716;2023-12-04T07:05:23;1.40;99.90
21387;DHT22;10854;45.922;6.716;2023-12-04T07:07:51;1.50;99.90
21387;DHT22;10854;45.922;6.716;2023-12-04T07:10:20;1.60;99.90
21387;DHT22;10854;45.922;6.716;2023-12-04T07:12:48;1.60;99.90
21387;DHT22;10854;45.922;6.716;2023-12-04T07:15:17;1.60;99.90
21387;DHT22;10854;45.922;6.716;2023-12-04T07:17:45;1.60;99.90
21387;DHT22;10854;45.922;6.716;2023-12-04T07:20:14;1.60;99.90
21387;DHT22;10854;45.922;6.716;2023-12-04T07:22:42;1.60;99.90
21387;DHT22;10854;45.922;6.716;2023-12-04T07:25:11;1.60;99.90
21387;DHT22;10854;45.922;6.716;2023-12-04T07:27:39;1.60;99.90
21387;DHT22;10854;45.922;6.716;2023-12-04T07:30:08;1.70;99.90
21387;DHT22;10854;45.922;6.716;2023-12-04T07:32:37;1.70;99.90
21387;DHT22;10854;45.922;6.716;2023-12-04T07:35:05;1.70;99.90
21387;DHT22;10854;45.922;6.716;2023-12-04T07:37:34;1.80;99.90
21387;DHT22;10854;45.922;6.716;2023-12-04T07:40:04;1.80;99.90
21387;DHT22;10854;45.922;6.716;2023-12-04T07:42:35;1.80;99.90
21387;DHT22;10854;45.922;6.716;2023-12-04T07:45:04;1.80;99.90
21387;DHT22;10854;45.922;6.716;2023-12-04T07:47:32;1.80;99.90
21387;DHT22;10854;45.922;6.716;2023-12-04T07:50:01;1.80;99.90
21387;DHT22;10854;45.922;6.716;2023-12-04T07:52:30;1.80;99.90
21387;DHT22;10854;45.922;6.716;2023-12-04T07:54:58;1.80;99.90
21387;DHT22;10854;45.922;6.716;2023-12-04T07:57:27;1.80;99.90
21387;DHT22;10854;45.922;6.716;2023-12-04T07:59:55;1.80;99.90
21387;DHT22;10854;45.922;6.716;2023-12-04T08:02:23;1.90;99.90
21387;DHT22;10854;45.922;6.716;2023-12-04T08:04:52;1.90;99.90
21387;DHT22;10854;45.922;6.716;2023-12-04T08:07:21;1.90;99.90
21387;DHT22;10854;45.922;6.716;2023-12-04T08:09:49;1.90;99.90
21387;DHT22;10854;45.922;6.716;2023-12-04T08:12:18;2.00;99.90
21387;DHT22;10854;45.922;6.716;2023-12-04T08:14:46;2.10;99.90
21387;DHT22;10854;45.922;6.716;2023-12-04T08:17:15;2.10;99.90
21387;DHT22;10854;45.922;6.716;2023-12-04T08:19:44;2.20;99.90
21387;DHT22;10854;45.922;6.716;2023-12-04T08:22:13;2.30;99.90
21387;DHT22;10854;45.922;6.716;2023-12-04T08:24:41;2.30;99.90
21387;DHT22;10854;45.922;6.716;2023-12-04T08:27:10;2.20;99.90
21387;DHT22;10854;45.922;6.716;2023-12-04T08:29:41;2.30;99.90
21387;DHT22;10854;45.922;6.716;2023-12-04T08:32:09;2.30;99.90
21387;DHT22;10854;45.922;6.716;2023-12-04T08:34:38;2.30;99.90
21387;DHT22;10854;45.922;6.716;2023-12-04T08:37:06;2.30;99.90
21387;DHT22;10854;45.922;6.716;2023-12-04T08:39:35;2.20;99.90
21387;DHT22;10854;45.922;6.716;2023-12-04T08:42:04;2.20;99.90
21387;DHT22;10854;45.922;6.716;2023-12-04T08:44:34;2.20;99.90
21387;DHT22;10854;45.922;6.716;2023-12-04T08:47:06;2.30;99.90
21387;DHT22;10854;45.922;6.716;2023-12-04T08:49:35;2.30;99.90
21387;DHT22;10854;45.922;6.716;2023-12-04T08:52:06;2.40;99.90
21387;DHT22;10854;45.922;6.716;2023-12-04T08:54:41;2.40;99.90
21387;DHT22;10854;45.922;6.716;2023-12-04T08:57:10;2.50;99.90
21387;DHT22;10854;45.922;6.716;2023-12-04T08:59:39;2.50;99.90
21387;DHT22;10854;45.922;6.716;2023-12-04T09:02:08;2.50;99.90
21387;DHT22;10854;45.922;6.716;2023-12-04T09:04:38;2.60;99.90
21387;DHT22;10854;45.922;6.716;2023-12-04T09:07:07;2.60;99.90
21387;DHT22;10854;45.922;6.716;2023-12-04T09:09:38;2.70;99.90
21387;DHT22;10854;45.922;6.716;2023-12-04T09:12:06;2.70;99.90
21387;DHT22;10854;45.922;6.716;2023-12-04T09:14:36;2.80;99.90
21387;DHT22;10854;45.922;6.716;2023-12-04T09:17:05;2.90;99.90
21387;DHT22;10854;45.922;6.716;2023-12-04T09:19:33;3.00;99.90
21387;DHT22;10854;45.922;6.716;2023-12-04T09:22:04;3.10;99.90
21387;DHT22;10854;45.922;6.716;2023-12-04T09:24:34;3.10;99.90
21387;DHT22;10854;45.922;6.716;2023-12-04T09:27:02;3.10;99.90
21387;DHT22;10854;45.922;6.716;2023-12-04T09:29:31;3.10;99.90
21387;DHT22;10854;45.922;6.716;2023-12-04T09:31:59;3.10;99.90
21387;DHT22;10854;45.922;6.716;2023-12-04T09:34:28;3.10;99.90
21387;DHT22;10854;45.922;6.716;2023-12-04T09:36:56;3.10;99.90
21387;DHT22;10854;45.922;6.716;2023-12-04T09:39:26;3.10;99.90
21387;DHT22;10854;45.922;6.716;2023-12-04T09:41:55;3.00;99.90
21387;DHT22;10854;45.922;6.716;2023-12-04T09:44:24;3.00;99.90
21387;DHT22;10854;45.922;6.716;2023-12-04T09:46:54;3.10;99.90
21387;DHT22;10854;45.922;6.716;2023-12-04T09:49:23;3.10;99.90
21387;DHT22;10854;45.922;6.716;2023-12-04T09:52:01;3.20;99.90
21387;DHT22;10854;45.922;6.716;2023-12-04T09:54:30;3.30;99.90
21387;DHT22;10854;45.922;6.716;2023-12-04T09:56:59;3.40;99.90
21387;DHT22;10854;45.922;6.716;2023-12-04T09:59:28;3.50;99.90
21387;DHT22;10854;45.922;6.716;2023-12-04T10:01:58;3.60;99.90
21387;DHT22;10854;45.922;6.716;2023-12-04T10:04:27;3.60;99.90
21387;DHT22;10854;45.922;6.716;2023-12-04T10:06:55;3.60;99.90
21387;DHT22;10854;45.922;6.716;2023-12-04T10:09:24;3.60;99.90
21387;DHT22;10854;45.922;6.716;2023-12-04T10:11:53;3.70;99.90
21387;DHT22;10854;45.922;6.716;2023-12-04T10:14:23;3.70;99.90
21387;DHT22;10854;45.922;6.716;2023-12-04T10:16:53;3.80;99.90
21387;DHT22;10854;45.922;6.716;2023-12-04T10:19:27;3.90;99.90
21387;DHT22;10854;45.922;6.716;2023-12-04T10:21:59;4.00;99.90
21387;DHT22;10854;45.922;6.716;2023-12-04T10:24:33;4.10;99.90
21387;DHT22;10854;45.922;6.716;2023-12-04T10:27:04;4.20;99.90
21387;DHT22;10854;45.922;6.716;2023-12-04T10:29:47;4.30;99.90
21387;DHT22;10854;45.922;6.716;2023-12-04T10:32:19;4.40;97.70
21387;DHT22;10854;45.922;6.716;2023-12-04T10:34:51;4.40;96.90
21387;DHT22;10854;45.922;6.716;2023-12-04T10:37:20;4.40;95.50
21387;DHT22;10854;45.922;6.716;2023-12-04T10:39:51;4.40;95.40
21387;DHT22;10854;45.922;6.716;2023-12-04T10:42:29;4.30;95.90
21387;DHT22;10854;45.922;6.716;2023-12-04T10:45:01;4.30;96.30
21387;DHT22;10854;45.922;6.716;2023-12-04T10:47:30;4.30;96.10
21387;DHT22;10854;45.922;6.716;2023-12-04T10:49:59;4.30;95.50
21387;DHT22;10854;45.922;6.716;2023-12-04T10:52:30;4.30;94.90
21387;DHT22;10854;45.922;6.716;2023-12-04T10:54:59;4.30;94.10
21387;DHT22;10854;45.922;6.716;2023-12-04T10:57:36;4.40;93.30
21387;DHT22;10854;45.922;6.716;2023-12-04T11:00:06;4.40;93.00
21387;DHT22;10854;45.922;6.716;2023-12-04T11:02:41;4.40;92.90
21387;DHT22;10854;45.922;6.716;2023-12-04T11:05:16;4.40;93.40
21387;DHT22;10854;45.922;6.716;2023-12-04T11:07:56;4.30;93.90
21387;DHT22;10854;45.922;6.716;2023-12-04T11:10:29;4.20;93.90
21387;DHT22;10854;45.922;6.716;2023-12-04T11:13:13;4.20;94.10
21387;DHT22;10854;45.922;6.716;2023-12-04T11:15:46;4.20;94.40
21387;DHT22;10854;45.922;6.716;2023-12-04T11:18:16;4.20;95.00
21387;DHT22;10854;45.922;6.716;2023-12-04T11:20:54;4.20;94.80
21387;DHT22;10854;45.922;6.716;2023-12-04T11:23:25;4.30;94.60
21387;DHT22;10854;45.922;6.716;2023-12-04T11:25:54;4.30;94.60
21387;DHT22;10854;45.922;6.716;2023-12-04T11:28:24;4.30;94.60
21387;DHT22;10854;45.922;6.716;2023-12-04T11:30:53;4.30;95.00
21387;DHT22;10854;45.922;6.716;2023-12-04T11:33:23;4.30;94.90
21387;DHT22;10854;45.922;6.716;2023-12-04T11:35:52;4.30;94.80
21387;DHT22;10854;45.922;6.716;2023-12-04T11:38:21;4.40;94.10
21387;DHT22;10854;45.922;6.716;2023-12-04T11:40:50;4.40;93.80
21387;DHT22;10854;45.922;6.716;2023-12-04T11:43:24;4.40;93.60
21387;DHT22;10854;45.922;6.716;2023-12-04T11:45:53;4.40;93.80
21387;DHT22;10854;45.922;6.716;2023-12-04T11:48:23;4.40;93.40
21387;DHT22;10854;45.922;6.716;2023-12-04T11:50:56;4.50;92.90
21387;DHT22;10854;45.922;6.716;2023-12-04T11:53:25;4.60;92.50
21387;DHT22;10854;45.922;6.716;2023-12-04T11:55:56;4.60;92.20
21387;DHT22;10854;45.922;6.716;2023-12-04T11:58:27;4.70;91.80
21387;DHT22;10854;45.922;6.716;2023-12-04T12:00:55;4.70;92.40
21387;DHT22;10854;45.922;6.716;2023-12-04T12:03:25;4.60;93.10
21387;DHT22;10854;45.922;6.716;2023-12-04T12:05:53;4.60;93.50
21387;DHT22;10854;45.922;6.716;2023-12-04T12:08:23;4.60;94.00
21387;DHT22;10854;45.922;6.716;2023-12-04T12:10:53;4.60;93.90
21387;DHT22;10854;45.922;6.716;2023-12-04T12:13:21;4.70;93.20
21387;DHT22;10854;45.922;6.716;2023-12-04T12:15:51;4.70;92.90
21387;DHT22;10854;45.922;6.716;2023-12-04T12:18:22;4.70;92.50
21387;DHT22;10854;45.922;6.716;2023-12-04T12:20:55;4.70;91.90
21387;DHT22;10854;45.922;6.716;2023-12-04T12:23:24;4.70;91.60
21387;DHT22;10854;45.922;6.716;2023-12-04T12:25:52;4.60;91.20
21387;DHT22;10854;45.922;6.716;2023-12-04T12:28:22;4.60;91.20
21387;DHT22;10854;45.922;6.716;2023-12-04T12:30:50;4.60;91.30
21387;DHT22;10854;45.922;6.716;2023-12-04T12:33:21;4.60;91.30
21387;DHT22;10854;45.922;6.716;2023-12-04T12:35:51;4.50;91.20
21387;DHT22;10854;45.922;6.716;2023-12-04T12:38:20;4.50;91.30
21387;DHT22;10854;45.922;6.716;2023-12-04T12:40:49;4.40;91.20
21387;DHT22;10854;45.922;6.716;2023-12-04T12:43:20;4.40;91.30
21387;DHT22;10854;45.922;6.716;2023-12-04T12:45:51;4.30;91.40
21387;DHT22;10854;45.922;6.716;2023-12-04T12:48:20;4.30;91.70
21387;DHT22;10854;45.922;6.716;2023-12-04T12:50:48;4.30;91.70
21387;DHT22;10854;45.922;6.716;2023-12-04T12:53:17;4.20;91.70
21387;DHT22;10854;45.922;6.716;2023-12-04T12:55:47;4.20;91.80
21387;DHT22;10854;45.922;6.716;2023-12-04T12:58:17;4.20;91.70
21387;DHT22;10854;45.922;6.716;2023-12-04T13:00:48;4.10;92.00
21387;DHT22;10854;45.922;6.716;2023-12-04T13:03:17;4.00;92.10
21387;DHT22;10854;45.922;6.716;2023-12-04T13:05:48;4.00;92.40
21387;DHT22;10854;45.922;6.716;2023-12-04T13:08:16;3.90;92.60
21387;DHT22;10854;45.922;6.716;2023-12-04T13:10:44;3.90;92.80
21387;DHT22;10854;45.922;6.716;2023-12-04T13:13:14;3.80;93.10
21387;DHT22;10854;45.922;6.716;2023-12-04T13:15:44;3.70;93.20
21387;DHT22;10854;45.922;6.716;2023-12-04T13:18:12;3.60;93.50
21387;DHT22;10854;45.922;6.716;2023-12-04T13:20:41;3.60;93.70
21387;DHT22;10854;45.922;6.716;2023-12-04T13:23:09;3.60;94.00
21387;DHT22;10854;45.922;6.716;2023-12-04T13:25:37;3.50;94.20
21387;DHT22;10854;45.922;6.716;2023-12-04T13:28:06;3.50;94.60
21387;DHT22;10854;45.922;6.716;2023-12-04T13:30:35;3.50;94.80
21387;DHT22;10854;45.922;6.716;2023-12-04T13:33:04;3.40;95.10
21387;DHT22;10854;45.922;6.716;2023-12-04T13:35:33;3.40;95.40
21387;DHT22;10854;45.922;6.716;2023-12-04T13:38:01;3.40;95.60
21387;DHT22;10854;45.922;6.716;2023-12-04T13:40:30;3.40;95.90
21387;DHT22;10854;45.922;6.716;2023-12-04T13:43:00;3.40;96.20
21387;DHT22;10854;45.922;6.716;2023-12-04T13:45:47;3.50;96.50
21387;DHT22;10854;45.922;6.716;2023-12-04T13:48:15;3.40;96.70
21387;DHT22;10854;45.922;6.716;2023-12-04T13:50:44;3.40;96.70
21387;DHT22;10854;45.922;6.716;2023-12-04T13:53:13;3.40;97.00
21387;DHT22;10854;45.922;6.716;2023-12-04T13:55:43;3.40;97.20
21387;DHT22;10854;45.922;6.716;2023-12-04T13:58:17;3.30;97.80
21387;DHT22;10854;45.922;6.716;2023-12-04T14:01:05;3.20;98.10
21387;DHT22;10854;45.922;6.716;2023-12-04T14:03:43;3.20;98.60
21387;DHT22;10854;45.922;6.716;2023-12-04T14:06:12;3.10;99.10
21387;DHT22;10854;45.922;6.716;2023-12-04T14:08:41;3.10;99.70
21387;DHT22;10854;45.922;6.716;2023-12-04T14:11:10;3.10;99.90
21387;DHT22;10854;45.922;6.716;2023-12-04T14:13:39;3.10;99.90
21387;DHT22;10854;45.922;6.716;2023-12-04T14:16:09;3.00;99.90
21387;DHT22;10854;45.922;6.716;2023-12-04T14:18:38;3.00;99.90
21387;DHT22;10854;45.922;6.716;2023-12-04T14:21:11;2.90;99.90
21387;DHT22;10854;45.922;6.716;2023-12-04T14:23:39;2.80;99.90
21387;DHT22;10854;45.922;6.716;2023-12-04T14:26:07;2.80;99.90
21387;DHT22;10854;45.922;6.716;2023-12-04T14:28:36;2.70;99.90
21387;DHT22;10854;45.922;6.716;2023-12-04T14:31:06;2.70;99.90
21387;DHT22;10854;45.922;6.716;2023-12-04T14:33:35;2.60;99.90
21387;DHT22;10854;45.922;6.716;2023-12-04T14:36:05;2.60;99.90
21387;DHT22;10854;45.922;6.716;2023-12-04T14:38:33;2.60;99.90
21387;DHT22;10854;45.922;6.716;2023-12-04T14:41:02;2.60;99.90
21387;DHT22;10854;45.922;6.716;2023-12-04T14:43:32;2.50;99.90
21387;DHT22;10854;45.922;6.716;2023-12-04T14:46:00;2.50;99.90
21387;DHT22;10854;45.922;6.716;2023-12-04T14:48:29;2.50;99.90
21387;DHT22;10854;45.922;6.716;2023-12-04T14:50:58;2.40;99.90
21387;DHT22;10854;45.922;6.716;2023-12-04T14:53:28;2.40;99.90
21387;DHT22;10854;45.922;6.716;2023-12-04T14:55:58;2.40;99.90
21387;DHT22;10854;45.922;6.716;2023-12-04T14:58:54;2.30;99.90
21387;DHT22;10854;45.922;6.716;2023-12-04T15:01:41;2.30;99.90
21387;DHT22;10854;45.922;6.716;2023-12-04T15:04:25;2.30;99.90
21387;DHT22;10854;45.922;6.716;2023-12-04T15:06:53;2.20;99.90
21387;DHT22;10854;45.922;6.716;2023-12-04T15:09:40;2.20;99.90
21387;DHT22;10854;45.922;6.716;2023-12-04T15:12:18;2.20;99.90
21387;DHT22;10854;45.922;6.716;2023-12-04T15:15:04;2.10;99.90
21387;DHT22;10854;45.922;6.716;2023-12-04T15:17:51;2.10;99.90
21387;DHT22;10854;45.922;6.716;2023-12-04T15:20:23;2.00;99.90
21387;DHT22;10854;45.922;6.716;2023-12-04T15:22:55;2.00;99.90
21387;DHT22;10854;45.922;6.716;2023-12-04T15:25:23;1.90;99.90
21387;DHT22;10854;45.922;6.716;2023-12-04T15:27:51;1.90;99.90
21387;DHT22;10854;45.922;6.716;2023-12-04T15:30:20;1.80;99.90
21387;DHT22;10854;45.922;6.716;2023-12-04T15:32:48;1.80;99.90
21387;DHT22;10854;45.922;6.716;2023-12-04T15:35:17;1.80;99.90
21387;DHT22;10854;45.922;6.716;2023-12-04T15:37:46;1.80;99.90
21387;DHT22;10854;45.922;6.716;2023-12-04T15:40:14;1.80;99.90
21387;DHT22;10854;45.922;6.716;2023-12-04T15:42:42;1.80;99.90
21387;DHT22;10854;45.922;6.716;2023-12-04T15:45:11;1.70;99.90
21387;DHT22;10854;45.922;6.716;2023-12-04T15:47:39;1.80;99.90
21387;DHT22;10854;45.922;6.716;2023-12-04T15:50:09;1.70;99.90
21387;DHT22;10854;45.922;6.716;2023-12-04T15:52:37;1.70;99.90
21387;DHT22;10854;45.922;6.716;2023-12-04T15:55:10;1.70;99.90